createdAt,value
2023-05-12T00:02:00.332Z,4.70
2023-05-12T00:04:27.136Z,4.87
2023-05-12T00:06:54.079Z,5.47
2023-05-12T00:09:20.994Z,5.20
2023-05-12T00:11:48.566Z,5.00
2023-05-12T00:14:16.180Z,6.20
2023-05-12T00:16:43.397Z,4.60
2023-05-12T00:19:10.216Z,4.87
2023-05-12T00:21:36.988Z,5.30
2023-05-12T00:24:03.975Z,5.53
2023-05-12T00:26:30.944Z,4.97
2023-05-12T00:28:57.749Z,5.30
2023-05-12T00:31:24.615Z,4.83
2023-05-12T00:33:51.547Z,4.83
2023-05-12T00:36:18.356Z,4.67
2023-05-12T00:38:45.159Z,6.27
2023-05-12T00:41:11.978Z,4.83
2023-05-12T00:43:38.767Z,4.83
2023-05-12T00:46:06.365Z,4.80
2023-05-12T00:48:33.548Z,4.60
2023-05-12T00:51:02.582Z,4.77
2023-05-12T00:53:37.902Z,4.53
2023-05-12T00:56:16.863Z,5.03
2023-05-12T00:58:43.828Z,4.43
2023-05-12T01:01:10.794Z,4.57
2023-05-12T01:03:37.833Z,4.83
2023-05-12T01:06:33.001Z,4.93
2023-05-12T01:09:00.596Z,4.93
2023-05-12T01:11:27.470Z,4.80
2023-05-12T01:13:54.333Z,4.33
2023-05-12T01:16:29.214Z,4.33
2023-05-12T01:18:56.897Z,4.80
2023-05-12T01:21:23.996Z,4.77
2023-05-12T01:23:59.264Z,4.07
2023-05-12T01:26:26.856Z,4.23
2023-05-12T01:28:54.498Z,4.43
2023-05-12T01:31:21.466Z,4.87
2023-05-12T01:33:48.401Z,3.97
2023-05-12T01:36:15.357Z,4.13
2023-05-12T01:38:42.364Z,4.47
2023-05-12T01:41:09.198Z,4.50
2023-05-12T01:43:36.007Z,3.90
2023-05-12T01:46:02.854Z,4.07
2023-05-12T01:48:29.696Z,4.33
2023-05-12T01:50:59.336Z,4.27
2023-05-12T01:53:26.137Z,3.90
2023-05-12T01:55:52.917Z,3.53
2023-05-12T01:58:20.510Z,3.63
2023-05-12T02:00:47.338Z,3.60
2023-05-12T02:03:14.337Z,3.80
2023-05-12T02:05:41.435Z,3.80
2023-05-12T02:08:08.304Z,3.13
2023-05-12T02:10:35.131Z,3.80
2023-05-12T02:13:02.322Z,3.97
2023-05-12T02:15:29.232Z,3.50
2023-05-12T02:17:57.220Z,3.83
2023-05-12T02:20:24.356Z,3.30
2023-05-12T02:22:51.160Z,3.80
2023-05-12T02:25:18.158Z,3.43
2023-05-12T02:27:45.143Z,3.70
2023-05-12T02:30:12.134Z,2.83
2023-05-12T02:32:38.947Z,3.60
2023-05-12T02:35:06.447Z,3.53
2023-05-12T02:37:33.456Z,3.20
2023-05-12T02:40:00.280Z,3.73
2023-05-12T02:42:33.914Z,3.43
2023-05-12T02:45:01.088Z,3.57
2023-05-12T02:47:31.351Z,3.10
2023-05-12T02:49:58.248Z,3.37
2023-05-12T02:52:25.079Z,2.97
2023-05-12T02:54:51.894Z,3.17
2023-05-12T02:57:18.898Z,2.77
2023-05-12T02:59:45.834Z,3.20
2023-05-12T03:02:12.764Z,3.20
2023-05-12T03:04:39.862Z,2.93
2023-05-12T03:07:07.373Z,3.17
2023-05-12T03:09:34.274Z,2.70
2023-05-12T03:12:01.289Z,3.20
2023-05-12T03:14:28.689Z,2.83
2023-05-12T03:16:55.621Z,3.23
2023-05-12T03:19:22.455Z,2.80
2023-05-12T03:21:49.269Z,2.77
2023-05-12T03:24:16.048Z,3.03
2023-05-12T03:26:42.885Z,3.07
2023-05-12T03:29:09.754Z,3.10
2023-05-12T03:31:37.098Z,3.00
2023-05-12T03:34:03.895Z,3.03
2023-05-12T03:36:30.693Z,3.03
2023-05-12T03:38:57.637Z,3.30
2023-05-12T03:41:24.562Z,3.60
2023-05-12T03:43:51.724Z,3.27
2023-05-12T03:46:18.604Z,3.53
2023-05-12T03:48:45.420Z,4.00
2023-05-12T03:51:12.321Z,4.90
2023-05-12T03:53:45.339Z,4.43
2023-05-12T03:56:12.723Z,4.60
2023-05-12T03:58:39.594Z,5.30
2023-05-12T04:01:06.497Z,5.03
2023-05-12T04:03:33.440Z,4.37
2023-05-12T04:06:04.281Z,5.57
2023-05-12T04:08:31.333Z,5.37
2023-05-12T04:10:59.448Z,5.63
2023-05-12T04:13:26.686Z,6.03
2023-05-12T04:15:57.701Z,5.37
2023-05-12T04:18:26.038Z,6.87
2023-05-12T04:20:53.952Z,6.40
2023-05-12T04:23:21.042Z,6.80
2023-05-12T04:25:48.015Z,7.30
2023-05-12T04:28:14.937Z,7.17
2023-05-12T04:30:42.741Z,6.80
2023-05-12T04:33:10.200Z,8.00
2023-05-12T04:35:37.494Z,7.73
2023-05-12T04:38:04.597Z,8.07
2023-05-12T04:40:33.493Z,8.73
2023-05-12T04:43:01.871Z,9.47
2023-05-12T04:45:28.787Z,10.33
2023-05-12T04:47:56.341Z,9.57
2023-05-12T04:50:23.165Z,9.07
2023-05-12T04:52:49.975Z,11.03
2023-05-12T04:55:17.192Z,10.97
2023-05-12T04:57:44.128Z,11.00
2023-05-12T05:00:11.552Z,11.00
2023-05-12T05:02:39.126Z,11.53
2023-05-12T05:05:06.505Z,12.30
2023-05-12T05:07:33.308Z,10.93
2023-05-12T05:10:00.140Z,10.60
2023-05-12T05:12:26.913Z,12.73
2023-05-12T05:14:53.873Z,11.90
2023-05-12T05:17:20.817Z,12.50
2023-05-12T05:19:57.893Z,11.93
2023-05-12T05:22:26.381Z,11.87
2023-05-12T05:24:53.189Z,13.00
2023-05-12T05:27:19.971Z,12.23
2023-05-12T05:29:46.799Z,12.53
2023-05-12T05:32:13.550Z,12.07
2023-05-12T05:34:40.486Z,12.97
2023-05-12T05:37:07.387Z,13.60
2023-05-12T05:39:34.196Z,14.20
2023-05-12T05:42:01.061Z,12.77
2023-05-12T05:44:27.856Z,14.47
2023-05-12T05:46:54.732Z,13.93
2023-05-12T05:49:21.588Z,13.43
2023-05-12T05:51:48.438Z,13.47
2023-05-12T05:54:15.338Z,14.63
2023-05-12T05:56:42.132Z,14.50
2023-05-12T05:59:09.870Z,14.90
2023-05-12T06:01:36.824Z,15.13
2023-05-12T06:04:04.017Z,15.23
2023-05-12T06:06:31.390Z,14.50
2023-05-12T06:08:58.234Z,15.10
2023-05-12T06:11:25.010Z,15.47
2023-05-12T06:13:51.828Z,16.17
2023-05-12T06:16:18.786Z,15.87
2023-05-12T06:18:45.658Z,16.93
2023-05-12T06:21:12.576Z,16.70
2023-05-12T06:23:39.378Z,15.63
2023-05-12T06:26:07.826Z,16.87
2023-05-12T06:28:34.600Z,17.03
2023-05-12T06:31:01.352Z,17.57
2023-05-12T06:33:28.212Z,17.23
2023-05-12T06:35:55.216Z,16.97
2023-05-12T06:38:22.059Z,16.60
2023-05-12T06:40:49.025Z,17.47
2023-05-12T06:43:15.913Z,18.57
2023-05-12T06:45:44.531Z,18.43
2023-05-12T06:48:12.016Z,18.00
2023-05-12T06:50:38.961Z,15.60
2023-05-12T06:53:07.912Z,16.23
2023-05-12T06:55:34.816Z,16.50
2023-05-12T06:58:02.026Z,15.43
2023-05-12T07:00:28.917Z,16.13
2023-05-12T07:02:55.923Z,15.27
2023-05-12T07:05:23.229Z,13.63
2023-05-12T07:07:50.346Z,14.90
2023-05-12T07:10:17.270Z,14.43
2023-05-12T07:12:44.118Z,14.47
2023-05-12T07:15:11.396Z,14.63
2023-05-12T07:17:38.340Z,13.83
2023-05-12T07:20:05.975Z,12.50
2023-05-12T07:22:32.950Z,12.37
2023-05-12T07:24:59.904Z,12.77
2023-05-12T07:27:27.100Z,11.33
2023-05-12T07:29:54.249Z,11.83
2023-05-12T07:32:21.096Z,11.60
2023-05-12T07:34:48.268Z,11.87
2023-05-12T07:37:15.193Z,12.10
2023-05-12T07:39:42.094Z,11.27
2023-05-12T07:42:09.588Z,10.67
2023-05-12T07:44:36.383Z,11.33
2023-05-12T07:47:03.239Z,9.63
2023-05-12T07:49:30.031Z,9.63
2023-05-12T07:51:58.027Z,8.83
2023-05-12T07:54:24.878Z,8.73
2023-05-12T07:56:51.757Z,8.77
2023-05-12T07:59:21.206Z,7.10
2023-05-12T08:01:48.060Z,6.30
2023-05-12T08:04:15.122Z,7.07
2023-05-12T08:06:42.101Z,6.70
2023-05-12T08:09:08.995Z,5.70
2023-05-12T08:11:35.822Z,6.37
2023-05-12T08:14:02.659Z,5.80
2023-05-12T08:16:29.516Z,6.53
2023-05-12T08:18:56.389Z,5.70
2023-05-12T08:21:24.008Z,5.87
2023-05-12T08:23:50.797Z,5.30
2023-05-12T08:26:17.750Z,4.47
2023-05-12T08:28:44.520Z,4.47
2023-05-12T08:31:11.753Z,3.93
2023-05-12T08:33:38.851Z,3.77
2023-05-12T08:36:06.012Z,3.83
2023-05-12T08:38:32.943Z,3.70
2023-05-12T08:41:11.558Z,3.70
2023-05-12T08:43:44.040Z,3.90
2023-05-12T08:46:12.339Z,3.80
2023-05-12T08:48:40.531Z,3.43
2023-05-12T08:51:13.138Z,3.83
2023-05-12T08:53:42.051Z,4.10
2023-05-12T08:58:45.699Z,3.50
2023-05-12T09:01:15.719Z,3.93
2023-05-12T09:03:42.927Z,3.27
2023-05-12T09:06:11.719Z,3.50
2023-05-12T09:08:40.699Z,3.97
2023-05-12T09:11:12.114Z,3.20
2023-05-12T09:13:46.189Z,3.00
2023-05-12T09:16:14.633Z,3.30
2023-05-12T09:18:54.317Z,3.23
2023-05-12T09:21:21.616Z,3.03
2023-05-12T09:23:58.488Z,2.30
2023-05-12T09:26:27.033Z,2.83
2023-05-12T09:28:56.268Z,2.73
2023-05-12T09:31:24.872Z,2.30
2023-05-12T09:33:52.221Z,2.47
2023-05-12T09:36:21.234Z,2.40
2023-05-12T09:39:04.643Z,2.30
2023-05-12T09:41:42.934Z,2.43
2023-05-12T09:44:11.145Z,2.50
2023-05-12T09:46:39.870Z,2.60
2023-05-12T09:49:06.939Z,2.90
2023-05-12T09:51:33.981Z,2.80
2023-05-12T09:54:01.141Z,3.00
2023-05-12T09:56:29.860Z,2.73
2023-05-12T09:58:57.938Z,2.40
2023-05-12T10:01:26.713Z,3.10
2023-05-12T10:03:56.401Z,2.37
2023-05-12T10:06:30.181Z,3.10
2023-05-12T10:09:16.404Z,2.20
2023-05-12T10:11:45.120Z,2.00
2023-05-12T10:14:13.388Z,2.00
2023-05-12T10:16:41.379Z,2.33
2023-05-12T10:19:10.522Z,1.70
2023-05-12T10:21:39.748Z,2.17
2023-05-12T10:24:07.704Z,2.17
2023-05-12T10:26:35.853Z,2.10
2023-05-12T10:29:02.965Z,2.00
2023-05-12T10:31:30.287Z,2.13
2023-05-12T10:34:01.379Z,2.03
2023-05-12T10:36:28.925Z,2.30
2023-05-12T10:38:56.711Z,2.03
2023-05-12T10:41:34.302Z,1.83
2023-05-12T10:44:01.493Z,2.17
2023-05-12T10:46:28.501Z,1.90
2023-05-12T10:49:10.843Z,2.23
2023-05-12T10:51:37.817Z,2.10
2023-05-12T10:54:07.244Z,2.30
2023-05-12T10:56:37.384Z,3.23
2023-05-12T10:59:29.101Z,1.40
2023-05-12T11:02:01.702Z,1.70
2023-05-12T11:04:48.135Z,1.70
2023-05-12T11:07:17.228Z,1.97
2023-05-12T11:09:57.562Z,1.90
2023-05-12T11:12:28.470Z,1.93
2023-05-12T11:14:55.415Z,1.80
2023-05-12T11:17:22.418Z,2.27
2023-05-12T11:19:50.726Z,1.83
2023-05-12T11:22:20.094Z,2.10
2023-05-12T11:24:48.221Z,2.13
2023-05-12T11:27:18.089Z,1.97
2023-05-12T11:29:55.268Z,2.30
2023-05-12T11:32:22.163Z,2.10
2023-05-12T11:34:49.097Z,1.90
2023-05-12T11:37:15.923Z,1.70
2023-05-12T11:39:42.750Z,2.30
2023-05-12T11:42:13.529Z,2.13
2023-05-12T11:44:50.708Z,2.27
2023-05-12T11:47:19.957Z,1.97
2023-05-12T11:49:48.038Z,2.37
2023-05-12T11:52:15.712Z,1.80
2023-05-12T11:54:53.513Z,1.67
2023-05-12T11:57:32.064Z,2.27
2023-05-12T12:00:09.699Z,2.27
2023-05-12T12:02:43.311Z,2.80
2023-05-12T12:05:21.089Z,2.77
2023-05-12T12:07:48.327Z,2.57
2023-05-12T12:10:16.854Z,2.33
2023-05-12T12:12:45.387Z,1.90
2023-05-12T12:15:13.157Z,2.10
2023-05-12T12:17:40.699Z,2.30
2023-05-12T12:20:09.248Z,2.80
2023-05-12T12:22:36.632Z,2.70
2023-05-12T12:25:04.215Z,2.30
2023-05-12T12:27:31.125Z,2.10
2023-05-12T12:29:58.062Z,2.20
2023-05-12T12:32:25.121Z,2.40
2023-05-12T12:34:52.871Z,2.27
2023-05-12T12:37:19.749Z,2.27
2023-05-12T12:39:48.033Z,2.40
2023-05-12T12:42:15.767Z,2.43
2023-05-12T12:44:43.024Z,2.10
2023-05-12T12:47:10.070Z,2.17
2023-05-12T12:49:37.004Z,2.17
2023-05-12T12:52:04.135Z,2.00
2023-05-12T12:54:30.958Z,2.50
2023-05-12T12:56:58.466Z,2.57
2023-05-12T12:59:25.467Z,2.33
2023-05-12T13:01:52.867Z,2.40
2023-05-12T13:04:22.987Z,2.43
2023-05-12T13:06:50.087Z,2.33
2023-05-12T13:09:19.801Z,2.70
2023-05-12T13:11:47.655Z,2.23
2023-05-12T13:14:14.663Z,2.07
2023-05-12T13:16:41.786Z,1.90
2023-05-12T13:19:09.056Z,2.30
2023-05-12T13:21:35.878Z,2.30
2023-05-12T13:24:02.751Z,2.40
2023-05-12T13:26:29.619Z,2.10
2023-05-12T13:28:56.502Z,2.33
2023-05-12T13:31:23.402Z,2.10
2023-05-12T13:33:50.589Z,2.13
2023-05-12T13:36:17.666Z,2.30
2023-05-12T13:38:46.024Z,2.53
2023-05-12T13:41:12.858Z,2.50
2023-05-12T13:43:39.629Z,1.97
2023-05-12T13:46:06.496Z,2.33
2023-05-12T13:48:33.318Z,2.13
2023-05-12T13:51:00.153Z,2.30
2023-05-12T13:53:27.043Z,2.03
2023-05-12T13:55:53.787Z,2.30
2023-05-12T13:58:20.605Z,2.10
2023-05-12T14:00:48.016Z,2.40
2023-05-12T14:03:14.910Z,2.30
2023-05-12T14:05:41.851Z,2.53
2023-05-12T14:08:09.039Z,1.97
2023-05-12T14:10:35.950Z,2.00
2023-05-12T14:13:02.731Z,2.40
2023-05-12T14:15:40.477Z,2.00
2023-05-12T14:18:14.976Z,2.00
2023-05-12T14:20:42.025Z,1.90
2023-05-12T14:23:08.917Z,1.97
2023-05-12T14:25:35.764Z,2.20
2023-05-12T14:28:03.623Z,2.10
2023-05-12T14:30:30.683Z,2.37
2023-05-12T14:32:57.617Z,2.00
2023-05-12T14:35:27.600Z,2.20
2023-05-12T14:37:55.414Z,2.57
2023-05-12T14:40:22.746Z,2.83
2023-05-12T14:42:49.566Z,2.50
2023-05-12T14:45:16.605Z,2.40
2023-05-12T14:47:43.507Z,3.33
2023-05-12T14:50:11.000Z,3.10
2023-05-12T14:52:40.503Z,3.00
2023-05-12T14:55:11.877Z,2.40
2023-05-12T14:57:40.217Z,2.00
2023-05-12T15:00:15.177Z,2.70
2023-05-12T15:02:44.104Z,2.10
2023-05-12T15:05:13.539Z,2.50
2023-05-12T15:07:40.492Z,2.33
2023-05-12T15:10:08.163Z,2.77
2023-05-12T15:12:35.033Z,2.57
2023-05-12T15:15:04.699Z,2.57
2023-05-12T15:17:32.402Z,2.97
2023-05-12T15:19:59.346Z,3.43
2023-05-12T15:22:26.438Z,2.40
2023-05-12T15:24:53.252Z,2.70
2023-05-12T15:27:20.089Z,2.10
2023-05-12T15:29:46.989Z,2.40
2023-05-12T15:32:13.926Z,2.50
2023-05-12T15:34:40.739Z,2.33
2023-05-12T15:37:07.665Z,2.50
2023-05-12T15:39:34.454Z,2.20
2023-05-12T15:42:01.413Z,2.90
2023-05-12T15:44:28.415Z,2.10
2023-05-12T15:46:55.668Z,2.53
2023-05-12T15:49:22.758Z,2.57
2023-05-12T15:51:49.542Z,2.63
2023-05-12T15:54:16.745Z,2.80
2023-05-12T15:56:43.563Z,2.70
2023-05-12T15:59:12.164Z,2.67
2023-05-12T16:01:39.260Z,2.50
2023-05-12T16:04:06.932Z,2.90
2023-05-12T16:06:33.985Z,2.60
2023-05-12T16:09:01.050Z,2.70
2023-05-12T16:11:28.568Z,2.80
2023-05-12T16:13:57.271Z,3.40
2023-05-12T16:16:24.479Z,2.90
2023-05-12T16:18:51.482Z,2.20
2023-05-12T16:21:18.456Z,2.50
2023-05-12T16:23:45.296Z,2.27
2023-05-12T16:26:12.204Z,2.83
2023-05-12T16:28:39.083Z,2.70
2023-05-12T16:31:05.935Z,3.27
2023-05-12T16:33:32.757Z,3.50
2023-05-12T16:35:59.641Z,2.70
2023-05-12T16:38:26.820Z,3.43
2023-05-12T16:40:53.711Z,3.23
2023-05-12T16:43:20.562Z,3.90
2023-05-12T16:45:48.135Z,3.60
2023-05-12T16:48:15.316Z,3.90
2023-05-12T16:50:42.116Z,3.70
2023-05-12T16:53:08.964Z,4.00
2023-05-12T16:55:35.761Z,3.73
2023-05-12T16:58:02.619Z,5.13
2023-05-12T17:00:30.163Z,4.00
2023-05-12T17:02:57.088Z,4.37
2023-05-12T17:05:24.709Z,4.47
2023-05-12T17:07:51.655Z,4.27
2023-05-12T17:10:18.490Z,4.63
2023-05-12T17:12:45.372Z,4.43
2023-05-12T17:15:12.273Z,5.10
2023-05-12T17:17:39.466Z,4.57
2023-05-12T17:20:06.820Z,5.23
2023-05-12T17:22:37.202Z,5.73
2023-05-12T17:25:04.555Z,5.80
2023-05-12T17:27:31.586Z,5.97
2023-05-12T17:29:59.838Z,5.77
2023-05-12T17:32:27.144Z,5.43
2023-05-12T17:34:54.094Z,5.97
2023-05-12T17:37:20.928Z,5.03
2023-05-12T17:39:47.851Z,5.37
2023-05-12T17:42:14.724Z,5.57
2023-05-12T17:44:41.743Z,4.80
2023-05-12T17:47:08.802Z,5.70
2023-05-12T17:49:36.366Z,5.70
2023-05-12T17:52:03.792Z,5.70
2023-05-12T17:54:30.728Z,5.87
2023-05-12T17:56:57.986Z,5.60
2023-05-12T17:59:25.138Z,6.37
2023-05-12T18:01:52.224Z,7.17
2023-05-12T18:04:19.683Z,7.00
2023-05-12T18:06:50.368Z,6.87
2023-05-12T18:09:17.958Z,7.27
2023-05-12T18:11:44.971Z,6.33
2023-05-12T18:14:11.814Z,7.30
2023-05-12T18:16:38.925Z,5.70
2023-05-12T18:19:05.794Z,6.77
2023-05-12T18:21:32.774Z,6.63
2023-05-12T18:23:59.640Z,6.80
2023-05-12T18:26:27.032Z,7.20
2023-05-12T18:28:54.059Z,6.97
2023-05-12T18:31:21.404Z,8.00
2023-05-12T18:33:50.003Z,6.73
2023-05-12T18:36:17.046Z,6.57
2023-05-12T18:38:44.691Z,5.77
2023-05-12T18:41:12.162Z,6.27
2023-05-12T18:43:38.950Z,5.60
2023-05-12T18:46:06.124Z,5.30
2023-05-12T18:48:33.174Z,5.90
2023-05-12T18:51:00.320Z,5.83
2023-05-12T18:53:27.179Z,5.20
2023-05-12T18:55:53.980Z,5.40
2023-05-12T18:58:20.834Z,6.33
2023-05-12T19:00:47.746Z,6.90
2023-05-12T19:03:14.706Z,5.43
2023-05-12T19:05:44.423Z,6.20
2023-05-12T19:08:12.741Z,5.60
2023-05-12T19:10:40.078Z,6.37
2023-05-12T19:13:08.287Z,5.40
2023-05-12T19:15:35.561Z,5.50
2023-05-12T19:18:02.503Z,5.60
2023-05-12T19:20:30.958Z,6.10
2023-05-12T19:22:59.769Z,6.00
2023-05-12T19:25:26.746Z,6.83
2023-05-12T19:27:53.624Z,6.10
2023-05-12T19:30:20.821Z,6.83
2023-05-12T19:32:47.727Z,7.00
2023-05-12T19:35:15.056Z,6.33
2023-05-12T19:37:42.224Z,7.37
2023-05-12T19:40:09.377Z,7.13
2023-05-12T19:42:37.853Z,7.27
2023-05-12T19:45:05.827Z,7.43
2023-05-12T19:47:33.533Z,7.70
2023-05-12T19:50:00.957Z,7.37
2023-05-12T19:52:30.732Z,7.63
2023-05-12T19:54:57.767Z,7.60
2023-05-12T19:57:24.579Z,8.20
2023-05-12T19:59:51.528Z,9.27
2023-05-12T20:02:18.566Z,8.93
2023-05-12T20:04:45.631Z,8.63
2023-05-12T20:07:12.471Z,8.40
2023-05-12T20:09:39.327Z,8.63
2023-05-12T20:12:07.985Z,8.23
2023-05-12T20:14:36.211Z,8.23
2023-05-12T20:17:05.784Z,8.60
2023-05-12T20:19:33.620Z,7.67
2023-05-12T20:22:00.677Z,8.07
2023-05-12T20:24:27.688Z,8.37
2023-05-12T20:26:54.877Z,7.57
2023-05-12T20:29:22.322Z,8.37
2023-05-12T20:31:50.855Z,8.23
2023-05-12T20:34:18.951Z,8.17
2023-05-12T20:36:46.582Z,7.40
2023-05-12T20:39:15.145Z,7.63
2023-05-12T20:41:43.322Z,7.97
2023-05-12T20:44:10.906Z,8.27
2023-05-12T20:46:38.859Z,8.37
2023-05-12T20:49:06.445Z,9.00
2023-05-12T20:51:33.497Z,9.20
2023-05-12T20:54:00.513Z,9.13
2023-05-12T20:56:27.330Z,8.70
2023-05-12T20:58:54.288Z,8.87
2023-05-12T21:01:21.264Z,9.40
2023-05-12T21:03:49.637Z,8.57
2023-05-12T21:06:16.587Z,8.40
2023-05-12T21:08:43.466Z,9.23
2023-05-12T21:11:17.371Z,9.00
2023-05-12T21:13:47.114Z,9.37
2023-05-12T21:16:14.703Z,9.57
2023-05-12T21:18:41.654Z,8.97
2023-05-12T21:21:08.630Z,8.97
2023-05-12T21:23:38.735Z,9.17
2023-05-12T21:26:05.946Z,8.53
2023-05-12T21:28:32.812Z,8.80
2023-05-12T21:30:59.644Z,8.97
2023-05-12T21:33:26.465Z,9.27
2023-05-12T21:35:53.337Z,10.03
2023-05-12T21:38:20.912Z,8.90
2023-05-12T21:40:56.421Z,8.80
2023-05-12T21:43:23.355Z,10.20
2023-05-12T21:45:50.388Z,8.17
2023-05-12T21:48:17.902Z,8.47
2023-05-12T21:50:44.846Z,8.80
2023-05-12T21:53:11.733Z,9.20
2023-05-12T21:55:40.745Z,8.13
2023-05-12T21:58:07.501Z,8.57
2023-05-12T22:00:34.378Z,8.83
2023-05-12T22:03:01.351Z,8.90
2023-05-12T22:05:28.212Z,8.57
2023-05-12T22:07:55.504Z,7.63
2023-05-12T22:10:22.567Z,7.63
2023-05-12T22:12:49.723Z,7.83
2023-05-12T22:15:17.889Z,7.00
2023-05-12T22:17:48.877Z,6.90
2023-05-12T22:20:17.284Z,7.17
2023-05-12T22:22:44.377Z,7.03
2023-05-12T22:25:11.208Z,6.20
2023-05-12T22:27:38.109Z,6.20
2023-05-12T22:30:05.322Z,6.00
2023-05-12T22:32:32.206Z,5.70
2023-05-12T22:34:59.345Z,5.30
2023-05-12T22:37:26.277Z,5.50
2023-05-12T22:39:53.081Z,5.27
2023-05-12T22:42:19.853Z,5.03
2023-05-12T22:44:46.718Z,4.97
2023-05-12T22:47:13.595Z,5.20
2023-05-12T22:49:40.742Z,5.57
2023-05-12T22:52:07.960Z,5.30
2023-05-12T22:54:34.824Z,5.53
2023-05-12T22:57:01.664Z,5.30
2023-05-12T22:59:28.448Z,5.63
2023-05-12T23:01:55.356Z,5.67
2023-05-12T23:04:22.310Z,5.90
2023-05-12T23:06:49.228Z,5.53
2023-05-12T23:09:16.048Z,5.60
2023-05-12T23:11:42.792Z,6.50
2023-05-12T23:14:11.352Z,5.70
2023-05-12T23:16:38.255Z,6.00
2023-05-12T23:19:05.442Z,6.17
2023-05-12T23:21:32.885Z,6.40
2023-05-12T23:23:59.582Z,5.80
2023-05-12T23:26:26.724Z,5.73
2023-05-12T23:28:53.489Z,6.37
2023-05-12T23:31:20.475Z,6.23
2023-05-12T23:33:47.387Z,5.90
2023-05-12T23:36:14.536Z,5.70
2023-05-12T23:38:41.465Z,5.50
2023-05-12T23:41:08.211Z,5.87
2023-05-12T23:43:35.072Z,6.03
2023-05-12T23:46:02.232Z,6.27
2023-05-12T23:48:29.873Z,5.90
2023-05-12T23:50:56.721Z,5.50
2023-05-12T23:53:23.577Z,6.00
2023-05-12T23:55:50.616Z,5.73
2023-05-12T23:58:17.424Z,5.50
